Time;durP1;ratioP1;P1;durP2;ratioP2;P2;SDS_P1;SDS_P2;PMS_P1;PMS_P2;Temp;Humidity;BMP_temperature;BMP_pressure;BME280_temperature;BME280_humidity;BME280_pressure;Samples;Min_cycle;Max_cycle;Signal;HPM_P1;HPM_P2
2021/04/28 00:01:57;;;;;;;618.08;560.78;;;6.50;93.90;;;;;;4956096;29;20419;-76
2021/04/28 00:04:25;;;;;;;617.75;562.90;;;6.50;93.90;;;;;;4956794;28;20420;-76
2021/04/28 00:06:53;;;;;;;612.67;564.70;;;6.40;94.30;;;;;;4939520;29;20424;-76
2021/04/28 00:09:24;;;;;;;610.50;566.87;;;6.30;94.50;;;;;;4954993;28;20453;-77
2021/04/28 00:11:52;;;;;;;610.72;566.42;;;6.30;95.10;;;;;;4956487;28;20417;-79
2021/04/28 00:14:20;;;;;;;265.70;121.43;;;6.30;95.30;;;;;;4957520;28;20540;-76
2021/04/28 00:16:49;;;;;;;404.20;109.80;;;6.30;95.60;;;;;;4940351;29;20883;-76
2021/04/28 00:19:17;;;;;;;446.77;119.37;;;6.30;95.10;;;;;;4957502;28;20426;-77
2021/04/28 00:21:45;;;;;;;13.13;6.00;;;6.20;95.50;;;;;;4957373;29;20815;-76
2021/04/28 00:24:12;;;;;;;;;;;6.20;96.20;;;;;;4958519;28;20286;-76
2021/04/28 00:27:04;;;;;;;;;;;6.20;96.30;;;;;;4957492;28;19949;-76
2021/04/28 00:29:32;;;;;;;;;;;6.10;96.90;;;;;;4958408;28;19977;-76
2021/04/28 00:32:01;;;;;;;10.27;4.50;;;6.10;97.20;;;;;;4956253;29;20215;-77
2021/04/28 00:34:28;;;;;;;7.15;5.43;;;6.10;97.40;;;;;;4955820;28;20417;-79
2021/04/28 00:36:56;;;;;;;11.23;8.30;;;6.00;97.30;;;;;;4954594;28;20425;-77
2021/04/28 00:39:29;;;;;;;7.87;5.90;;;5.90;97.30;;;;;;4941753;29;20422;-78
2021/04/28 00:41:58;;;;;;;7.00;5.47;;;6.00;97.70;;;;;;4959341;29;20917;-76
2021/04/28 00:44:26;;;;;;;8.02;5.47;;;6.00;97.20;;;;;;4960681;28;20441;-76
2021/04/28 00:47:07;;;;;;;7.07;5.07;;;6.00;97.30;;;;;;4973128;28;20500;-76
2021/04/28 00:49:35;;;;;;;7.85;5.20;;;6.00;97.80;;;;;;4973666;28;20428;-76
2021/04/28 00:52:04;;;;;;;9.20;5.93;;;5.90;98.30;;;;;;4972059;28;20414;-76
2021/04/28 00:54:34;;;;;;;7.05;5.90;;;5.90;98.80;;;;;;4973228;29;20424;-76
2021/04/28 00:57:04;;;;;;;7.72;5.25;;;5.80;99.10;;;;;;4972131;28;20428;-76
2021/04/28 00:59:32;;;;;;;7.20;5.57;;;5.80;99.50;;;;;;4950657;28;20418;-76
2021/04/28 01:02:00;;;;;;;8.02;5.80;;;5.70;99.50;;;;;;4962964;28;20418;-76
2021/04/28 01:04:37;;;;;;;7.63;5.70;;;5.70;99.90;;;;;;4958224;29;20414;-76
2021/04/28 01:07:06;;;;;;;6.75;5.28;;;5.60;99.90;;;;;;4959417;28;20434;-78
2021/04/28 01:09:35;;;;;;;9.48;5.63;;;5.50;99.90;;;;;;4962669;29;20422;-76
2021/04/28 01:12:05;;;;;;;7.05;6.15;;;5.50;99.90;;;;;;4948080;29;20418;-76
2021/04/28 01:14:35;;;;;;;8.05;5.70;;;5.50;99.90;;;;;;4968615;28;20424;-76
2021/04/28 01:17:06;;;;;;;6.70;5.50;;;5.50;99.90;;;;;;4961557;29;20504;-76
2021/04/28 01:19:40;;;;;;;8.03;6.40;;;5.50;99.90;;;;;;4977216;28;20414;-78
2021/04/28 01:22:12;;;;;;;7.25;6.55;;;5.40;99.90;;;;;;4945687;29;20421;-76
2021/04/28 01:24:42;;;;;;;7.85;6.03;;;5.40;99.90;;;;;;4961497;28;20469;-76
2021/04/28 01:27:15;;;;;;;9.05;6.10;;;5.40;99.90;;;;;;4979010;28;20477;-76
2021/04/28 01:29:46;;;;;;;10.57;6.97;;;5.30;99.90;;;;;;4944917;29;20426;-76
2021/04/28 01:32:19;;;;;;;10.10;6.55;;;5.30;99.90;;;;;;4962293;29;20422;-77
2021/04/28 01:34:49;;;;;;;10.75;6.50;;;5.30;99.90;;;;;;4947261;29;20520;-75
2021/04/28 01:37:18;;;;;;;9.43;6.30;;;5.30;99.90;;;;;;4971747;28;20441;-77
2021/04/28 01:39:51;;;;;;;10.25;7.30;;;5.20;99.90;;;;;;4973682;28;20430;-78
2021/04/28 01:42:20;;;;;;;9.23;6.30;;;5.20;99.90;;;;;;4961989;29;20422;-77
2021/04/28 01:44:50;;;;;;;7.03;6.28;;;5.10;99.90;;;;;;4963255;29;20414;-75
2021/04/28 01:47:20;;;;;;;7.28;6.28;;;5.10;99.90;;;;;;4958404;29;20441;-77
2021/04/28 01:49:53;;;;;;;10.35;7.35;;;5.10;99.90;;;;;;4942440;29;20429;-77
2021/04/28 01:52:21;;;;;;;7.53;6.72;;;5.00;99.90;;;;;;4958160;28;20468;-76
2021/04/28 01:54:51;;;;;;;9.35;6.60;;;5.00;99.90;;;;;;4957861;28;20417;-77
2021/04/28 01:57:19;;;;;;;7.93;6.00;;;4.90;99.90;;;;;;4941937;29;20501;-77
2021/04/28 02:00:10;;;;;;;7.90;6.10;;;4.80;99.90;;;;;;4973521;28;20410;-77
2021/04/28 02:02:54;;;;;;;9.63;6.70;;;4.80;99.90;;;;;;4959026;29;20425;-77
2021/04/28 02:05:26;;;;;;;10.13;6.70;;;4.80;99.90;;;;;;4958218;29;20417;-77
2021/04/28 02:07:54;;;;;;;7.68;6.40;;;4.90;99.90;;;;;;4941726;29;20415;-77
2021/04/28 02:10:23;;;;;;;7.47;6.65;;;4.90;99.90;;;;;;4959584;28;20440;-77
2021/04/28 02:12:52;;;;;;;8.97;7.30;;;4.90;99.90;;;;;;4957363;29;20492;-76
2021/04/28 02:15:30;;;;;;;8.60;7.40;;;4.80;99.90;;;;;;4957403;28;20418;-77
2021/04/28 02:18:05;;;;;;;9.32;6.95;;;4.70;99.90;;;;;;4957347;28;20438;-77
2021/04/28 02:20:40;;;;;;;8.20;7.10;;;4.70;99.90;;;;;;4955581;28;20421;-76
2021/04/28 02:23:32;;;;;;;8.55;7.10;;;4.70;99.90;;;;;;4954145;29;20903;-78
2021/04/28 02:26:03;;;;;;;10.00;7.50;;;4.70;99.90;;;;;;4957621;29;20414;-77
2021/04/28 02:28:33;;;;;;;7.90;6.68;;;4.80;99.90;;;;;;4958069;29;20414;-77
2021/04/28 02:31:05;;;;;;;9.77;7.38;;;4.70;99.90;;;;;;4957222;28;20498;-77
2021/04/28 02:33:38;;;;;;;9.35;6.72;;;4.70;99.90;;;;;;4941326;29;20855;-76
2021/04/28 02:36:39;;;;;;;9.15;7.07;;;4.60;99.90;;;;;;4958149;28;20920;-77
2021/04/28 02:39:36;;;;;;;11.50;7.22;;;4.50;99.90;;;;;;4939584;29;20438;-77
2021/04/28 02:42:07;;;;;;;10.57;7.87;;;4.40;99.90;;;;;;4956943;29;20956;-77
2021/04/28 02:44:36;;;;;;;8.98;6.72;;;4.40;99.90;;;;;;4941266;29;20837;-76
2021/04/28 02:47:09;;;;;;;12.45;7.03;;;4.30;99.90;;;;;;4956740;28;20406;-75
2021/04/28 02:49:41;;;;;;;10.00;7.32;;;4.30;99.90;;;;;;4957171;28;20414;-77
2021/04/28 02:52:47;;;;;;;10.50;8.07;;;4.30;99.90;;;;;;4952318;29;20436;-76
2021/04/28 02:55:16;;;;;;;9.50;7.80;;;4.20;99.90;;;;;;4957466;28;20429;-77
2021/04/28 02:57:48;;;;;;;11.15;7.53;;;4.20;99.90;;;;;;4941692;29;20946;-77
2021/04/28 03:00:19;;;;;;;9.50;6.93;;;4.20;99.90;;;;;;4941731;29;21012;-76
2021/04/28 03:02:48;;;;;;;10.25;7.53;;;4.20;99.90;;;;;;4957616;29;20422;-77
2021/04/28 03:05:18;;;;;;;10.07;7.70;;;4.10;99.90;;;;;;4956940;28;20456;-77
2021/04/28 03:08:06;;;;;;;11.57;8.00;;;4.20;99.90;;;;;;4958747;28;20440;-77
2021/04/28 03:10:35;;;;;;;8.80;7.15;;;4.10;99.90;;;;;;4957747;28;20509;-77
2021/04/28 03:13:10;;;;;;;11.20;7.47;;;4.10;99.90;;;;;;4957947;28;20877;-77
2021/04/28 03:16:04;;;;;;;9.97;7.70;;;4.10;99.90;;;;;;4945996;29;20410;-77
2021/04/28 03:18:32;;;;;;;11.77;7.80;;;4.00;99.90;;;;;;4960835;29;20418;-76
2021/04/28 03:21:02;;;;;;;10.30;7.30;;;4.00;99.90;;;;;;4967282;29;21019;-77
2021/04/28 03:23:32;;;;;;;9.23;7.20;;;3.90;99.90;;;;;;4966288;28;20787;-77
2021/04/28 03:26:01;;;;;;;10.13;7.55;;;3.80;99.90;;;;;;4946754;28;20419;-77
2021/04/28 03:28:34;;;;;;;8.30;7.40;;;3.80;99.90;;;;;;4958125;28;20413;-77
2021/04/28 03:31:01;;;;;;;13.23;7.50;;;3.80;99.90;;;;;;4957577;28;20418;-77
2021/04/28 03:33:30;;;;;;;12.00;8.37;;;3.80;99.90;;;;;;4957618;29;20935;-78
2021/04/28 03:36:09;;;;;;;11.48;8.38;;;3.70;99.90;;;;;;4942034;29;20489;-77
2021/04/28 03:38:56;;;;;;;9.05;7.50;;;3.70;99.90;;;;;;4943237;29;20433;-76
2021/04/28 03:41:28;;;;;;;9.70;7.63;;;3.70;99.90;;;;;;4945620;29;20538;-76
2021/04/28 03:44:00;;;;;;;9.70;7.72;;;3.70;99.90;;;;;;4945757;29;20976;-76
2021/04/28 03:46:31;;;;;;;10.17;8.10;;;3.70;99.90;;;;;;4946583;29;20434;-76
2021/04/28 03:49:01;;;;;;;8.43;7.60;;;3.60;99.90;;;;;;4963367;29;20496;-77
2021/04/28 03:51:30;;;;;;;9.07;7.68;;;3.60;99.90;;;;;;4943944;29;20421;-76
2021/04/28 03:54:18;;;;;;;8.18;7.38;;;3.60;99.90;;;;;;4962180;29;20496;-78
2021/04/28 03:56:55;;;;;;;10.52;7.60;;;3.50;99.90;;;;;;4945366;29;20457;-78
2021/04/28 03:59:24;;;;;;;13.70;7.90;;;3.50;99.90;;;;;;4944798;29;20520;-76
2021/04/28 04:02:20;;;;;;;14.95;8.00;;;3.50;99.90;;;;;;4962239;29;20806;-76
2021/04/28 04:05:24;;;;;;;12.60;8.25;;;3.50;99.90;;;;;;4903057;29;20437;-77
2021/04/28 04:08:11;;;;;;;9.73;8.75;;;3.50;99.90;;;;;;4938573;29;20903;-77
2021/04/28 04:10:47;;;;;;;12.13;8.60;;;3.40;99.90;;;;;;4941438;29;20418;-76
2021/04/28 04:13:15;;;;;;;11.82;8.23;;;3.40;99.90;;;;;;4957399;28;20496;-76
2021/04/28 04:15:49;;;;;;;15.70;8.70;;;3.50;99.90;;;;;;4957265;28;20433;-77
2021/04/28 04:18:17;;;;;;;11.52;8.00;;;3.50;99.90;;;;;;4959463;29;20507;-78
2021/04/28 04:20:50;;;;;;;12.60;8.80;;;3.50;99.90;;;;;;4942050;29;20422;-77
2021/04/28 04:23:22;;;;;;;11.65;7.95;;;3.50;99.90;;;;;;4942546;29;20417;-76
2021/04/28 04:26:15;;;;;;;11.52;8.02;;;3.50;99.90;;;;;;4955673;29;20458;-77
2021/04/28 04:29:01;;;;;;;13.30;8.55;;;3.70;99.90;;;;;;4970062;28;20418;-77
2021/04/28 04:31:55;;;;;;;11.40;7.93;;;3.70;99.90;;;;;;4954741;28;20414;-76
2021/04/28 04:34:43;;;;;;;12.73;8.13;;;3.80;99.90;;;;;;4972524;28;20428;-77
2021/04/28 04:37:30;;;;;;;13.15;7.30;;;3.90;99.90;;;;;;4970878;28;20422;-77
2021/04/28 04:40:29;;;;;;;13.98;9.30;;;4.00;99.90;;;;;;4973248;28;20425;-77
2021/04/28 04:43:16;;;;;;;11.73;8.60;;;4.10;99.90;;;;;;4976718;28;20565;-77
2021/04/28 04:45:54;;;;;;;10.65;7.82;;;4.20;99.90;;;;;;4963380;28;20453;-77
2021/04/28 04:48:23;;;;;;;11.23;8.03;;;4.30;99.90;;;;;;4944928;29;20504;-75
2021/04/28 04:50:50;;;;;;;11.23;7.50;;;4.40;99.90;;;;;;4961027;28;21027;-76
2021/04/28 04:53:18;;;;;;;9.32;8.10;;;4.50;99.90;;;;;;4961492;28;20472;-77
2021/04/28 04:56:10;;;;;;;13.65;8.50;;;4.60;99.90;;;;;;4943912;29;20414;-77
2021/04/28 04:58:38;;;;;;;11.80;8.48;;;4.70;99.90;;;;;;4959715;29;20422;-77
2021/04/28 05:01:05;;;;;;;9.82;7.93;;;4.80;99.90;;;;;;4963528;28;20750;-76
2021/04/28 05:03:35;;;;;;;9.90;8.15;;;4.90;99.90;;;;;;4962828;28;20410;-76
2021/04/28 05:06:02;;;;;;;11.88;7.80;;;5.10;99.90;;;;;;4958351;29;20422;-76
2021/04/28 05:08:30;;;;;;;10.57;8.65;;;5.20;99.90;;;;;;4943295;29;20906;-75
2021/04/28 05:10:58;;;;;;;10.27;7.63;;;5.20;99.90;;;;;;4959021;29;20413;-77
2021/04/28 05:13:25;;;;;;;9.27;7.88;;;5.30;99.90;;;;;;4960360;28;20477;-77
2021/04/28 05:15:53;;;;;;;11.95;8.93;;;5.50;99.90;;;;;;4959950;28;20421;-77
2021/04/28 05:18:21;;;;;;;9.05;7.75;;;5.50;99.90;;;;;;4961767;29;20427;-78
2021/04/28 05:20:50;;;;;;;10.45;7.95;;;5.60;99.90;;;;;;4959867;28;20745;-77
2021/04/28 05:23:18;;;;;;;10.38;8.52;;;5.70;99.90;;;;;;4943966;29;20445;-77
2021/04/28 05:26:05;;;;;;;12.32;8.30;;;5.90;99.90;;;;;;4958313;29;20504;-77
2021/04/28 05:28:33;;;;;;;10.45;8.60;;;6.20;99.90;;;;;;4958060;28;20418;-77
2021/04/28 05:31:01;;;;;;;12.27;9.02;;;6.30;99.90;;;;;;4942168;28;20418;-77
2021/04/28 05:33:29;;;;;;;11.93;8.85;;;6.50;99.90;;;;;;4957904;29;20445;-76
2021/04/28 05:35:59;;;;;;;14.98;8.10;;;6.60;99.90;;;;;;4957405;29;20766;-77
2021/04/28 05:38:27;;;;;;;10.93;8.20;;;6.70;99.90;;;;;;4957624;29;20434;-78
2021/04/28 05:40:55;;;;;;;11.57;8.18;;;6.90;99.90;;;;;;4941440;29;20917;-78
2021/04/28 05:43:23;;;;;;;11.30;9.20;;;7.10;99.90;;;;;;4942260;29;20500;-76
2021/04/28 05:45:52;;;;;;;11.23;8.73;;;7.10;99.90;;;;;;4941971;29;20421;-77
2021/04/28 05:48:19;;;;;;;12.63;9.10;;;7.20;99.90;;;;;;4957677;28;20437;-77
2021/04/28 05:50:51;;;;;;;16.38;9.60;;;7.40;99.90;;;;;;4959347;28;20465;-77
2021/04/28 05:53:22;;;;;;;14.05;10.55;;;7.70;99.90;;;;;;4958253;28;20414;-77
2021/04/28 05:55:50;;;;;;;12.82;9.18;;;7.80;99.80;;;;;;4958417;28;20449;-77
2021/04/28 05:58:18;;;;;;;10.68;9.13;;;7.70;99.40;;;;;;4958185;28;20425;-76
2021/04/28 06:00:47;;;;;;;10.35;8.95;;;8.00;99.70;;;;;;4957604;29;20422;-76
2021/04/28 06:03:17;;;;;;;11.23;9.30;;;8.30;99.10;;;;;;4957408;29;20413;-76
2021/04/28 06:05:45;;;;;;;14.20;9.57;;;8.70;98.30;;;;;;4957877;29;20420;-76
2021/04/28 06:08:38;;;;;;;57.20;39.92;;;9.10;97.30;;;;;;4941972;29;20430;-76
2021/04/28 06:11:07;;;;;;;12.25;9.60;;;9.60;96.70;;;;;;4958622;28;20410;-76
2021/04/28 06:13:37;;;;;;;13.17;9.67;;;10.20;94.80;;;;;;4957367;29;20770;-76
2021/04/28 06:16:05;;;;;;;15.65;11.00;;;10.60;93.70;;;;;;4957740;28;20509;-77
2021/04/28 06:18:33;;;;;;;10.30;8.73;;;10.90;92.40;;;;;;4958491;29;20890;-77
2021/04/28 06:21:01;;;;;;;10.40;8.32;;;11.70;90.60;;;;;;4941258;29;20482;-76
2021/04/28 06:23:28;;;;;;;10.20;9.10;;;12.60;86.60;;;;;;4940824;29;20502;-76
2021/04/28 06:25:57;;;;;;;9.93;8.93;;;12.90;82.40;;;;;;4957373;29;20422;-76
2021/04/28 06:28:24;;;;;;;11.90;8.50;;;13.00;79.30;;;;;;4956753;28;20414;-76
2021/04/28 06:30:52;;;;;;;8.50;7.50;;;13.50;78.60;;;;;;4956136;29;20477;-77
2021/04/28 06:33:20;;;;;;;9.65;8.18;;;13.90;75.80;;;;;;4940414;29;20410;-76
2021/04/28 06:35:48;;;;;;;9.00;7.90;;;15.20;72.10;;;;;;4939849;29;20429;-76
2021/04/28 06:38:16;;;;;;;9.60;7.35;;;15.00;69.40;;;;;;4939917;29;20441;-76
2021/04/28 06:40:44;;;;;;;10.38;7.80;;;15.30;67.60;;;;;;4940587;29;20481;-77
2021/04/28 06:43:13;;;;;;;8.90;8.00;;;15.30;66.60;;;;;;4941410;29;20827;-77
2021/04/28 06:46:00;;;;;;;8.60;7.75;;;15.40;66.00;;;;;;4958149;28;20993;-76
2021/04/28 06:48:29;;;;;;;8.48;7.57;;;15.90;65.50;;;;;;4943451;29;20485;-77
2021/04/28 06:50:57;;;;;;;11.85;8.10;;;16.90;62.00;;;;;;4959727;28;20882;-74
2021/04/28 06:53:25;;;;;;;567.20;538.63;;;16.50;60.20;;;;;;4961976;28;20200;-76
2021/04/28 06:55:53;;;;;;;521.33;489.60;;;16.50;59.60;;;;;;4961345;29;20421;-75
2021/04/28 06:58:23;;;;;;;489.98;471.77;;;17.20;60.20;;;;;;4944938;29;20430;-75
2021/04/28 07:00:51;;;;;;;467.05;449.77;;;17.80;57.10;;;;;;4960804;28;20437;-74
2021/04/28 07:03:19;;;;;;;490.10;472.00;;;18.10;56.50;;;;;;4961822;29;20417;-76
2021/04/28 07:05:48;;;;;;;447.02;430.52;;;18.30;54.90;;;;;;4962043;28;20432;-74
2021/04/28 07:08:21;;;;;;;656.70;629.33;;;18.50;54.50;;;;;;4962323;28;21025;-76
2021/04/28 07:10:49;;;;;;;611.65;586.92;;;18.30;53.70;;;;;;4962527;29;20481;-75
2021/04/28 07:13:23;;;;;;;600.85;576.35;;;18.30;53.70;;;;;;4960967;28;20436;-75
2021/04/28 07:15:51;;;;;;;613.23;587.93;;;19.20;52.90;;;;;;4961125;28;20457;-77
2021/04/28 07:18:22;;;;;;;612.50;587.40;;;18.60;53.10;;;;;;4960822;29;20436;-75
2021/04/28 07:20:51;;;;;;;496.50;477.52;;;18.20;53.50;;;;;;4945733;28;20501;-75
2021/04/28 07:23:19;;;;;;;614.33;588.95;;;18.90;54.00;;;;;;4946186;29;20413;-76
2021/04/28 07:25:47;;;;;;;671.10;605.10;;;19.60;52.90;;;;;;4963842;29;20217;-74
2021/04/28 07:28:16;;;;;;;932.17;857.77;;;19.50;50.50;;;;;;4963893;28;20406;-74
2021/04/28 07:30:45;;;;;;;952.03;876.92;;;19.80;50.50;;;;;;4968712;28;20473;-74
2021/04/28 07:33:13;;;;;;;956.10;881.65;;;21.00;50.30;;;;;;4965601;28;20422;-76
2021/04/28 07:35:41;;;;;;;953.92;879.92;;;20.70;46.60;;;;;;4948291;28;20416;-76
2021/04/28 07:38:16;;;;;;;954.78;880.28;;;19.70;49.40;;;;;;4964023;28;20424;-73
2021/04/28 07:40:44;;;;;;;965.33;890.43;;;20.60;49.60;;;;;;4981499;28;20412;-74
2021/04/28 07:43:12;;;;;;;972.15;896.90;;;20.50;48.70;;;;;;4982168;28;20405;-74
2021/04/28 07:45:41;;;;;;;968.00;892.75;;;19.30;49.30;;;;;;4964560;28;20416;-74
2021/04/28 07:48:12;;;;;;;1028.65;950.53;;;19.50;49.20;;;;;;4964337;28;20412;-73
2021/04/28 07:50:41;;;;;;;1074.50;994.40;;;20.20;49.30;;;;;;4981675;28;20488;-77
2021/04/28 07:53:09;;;;;;;1091.72;999.90;;;21.00;48.50;;;;;;4964920;28;20420;-74
2021/04/28 07:55:37;;;;;;;1095.55;999.90;;;20.60;47.50;;;;;;4964571;28;20564;-73
2021/04/28 07:58:05;;;;;;;1095.30;999.90;;;20.80;47.90;;;;;;4981984;28;21001;-73
2021/04/28 08:00:34;;;;;;;1069.47;990.15;;;19.80;47.10;;;;;;4980601;28;20408;-72
2021/04/28 08:03:02;;;;;;;1086.55;999.90;;;19.00;50.60;;;;;;4963656;28;20423;-69
2021/04/28 08:05:31;;;;;;;1089.05;999.90;;;19.50;49.80;;;;;;4963725;28;20412;-73
2021/04/28 08:07:59;;;;;;;1086.13;999.90;;;19.80;49.30;;;;;;4980489;28;20416;-73
2021/04/28 08:10:27;;;;;;;1123.05;999.90;;;20.80;48.60;;;;;;4962889;28;20438;-73
2021/04/28 08:12:56;;;;;;;1139.50;999.90;;;20.80;45.90;;;;;;4963222;28;20420;-73
2021/04/28 08:15:25;;;;;;;1171.93;999.90;;;21.20;47.70;;;;;;4981495;28;20451;-74
2021/04/28 08:17:53;;;;;;;1200.57;999.90;;;22.60;44.60;;;;;;4949668;28;20427;-76
2021/04/28 08:20:21;;;;;;;1163.60;999.90;;;22.20;44.50;;;;;;4952563;28;20416;-73
2021/04/28 08:22:50;;;;;;;1185.53;999.90;;;21.40;45.20;;;;;;4968556;28;20450;-74
2021/04/28 08:25:18;;;;;;;1178.32;999.90;;;21.40;43.70;;;;;;4952444;28;20404;-74
2021/04/28 08:27:47;;;;;;;1145.07;999.90;;;21.80;46.00;;;;;;4969039;28;20445;-73
2021/04/28 08:30:15;;;;;;;1157.47;999.90;;;21.70;44.40;;;;;;4953282;28;20408;-74
2021/04/28 08:32:43;;;;;;;1274.45;999.90;;;22.30;44.80;;;;;;4985987;28;20457;-78
2021/04/28 08:35:14;;;;;;;1288.85;999.90;;;22.60;43.50;;;;;;4967088;28;20416;-73
2021/04/28 08:37:45;;;;;;;1322.50;999.90;;;23.20;42.80;;;;;;4950265;28;20931;-73
2021/04/28 08:40:16;;;;;;;1326.00;999.90;;;23.60;42.00;;;;;;4966405;28;20539;-74
2021/04/28 08:42:45;;;;;;;1330.78;999.90;;;22.90;42.10;;;;;;4982782;28;20408;-71
2021/04/28 08:45:16;;;;;;;1330.07;999.90;;;23.70;41.80;;;;;;4981853;28;20848;-72
2021/04/28 08:47:45;;;;;;;1313.30;999.90;;;23.60;40.90;;;;;;4949982;28;20828;-72
2021/04/28 08:55:04;;;;;;;1250.47;999.90;;;22.60;41.80;;;;;;4983185;28;20404;-73
2021/04/28 08:57:33;;;;;;;1329.93;999.90;;;23.30;41.20;;;;;;4981433;28;20428;-73
2021/04/28 09:00:01;;;;;;;1332.25;999.90;;;24.10;39.00;;;;;;4964194;28;20452;-73
2021/04/28 09:05:21;;;;;;;1341.78;999.90;;;23.30;40.10;;;;;;4949058;28;20797;-74
2021/04/28 09:07:49;;;;;;;1326.07;999.90;;;24.40;38.70;;;;;;4963138;28;20511;-72
2021/04/28 09:10:19;;;;;;;1345.33;999.90;;;23.30;38.00;;;;;;4965175;28;20416;-74
2021/04/28 09:12:57;;;;;;;1359.95;999.90;;;24.00;39.10;;;;;;4962941;28;20922;-73
2021/04/28 09:15:34;;;;;;;1329.72;999.90;;;26.60;35.60;;;;;;4976950;28;20464;-73
2021/04/28 09:18:04;;;;;;;1259.65;999.90;;;25.80;34.00;;;;;;4975850;28;20426;-73
2021/04/28 09:20:52;;;;;;;1271.78;999.90;;;24.20;37.80;;;;;;4961271;29;20422;-75
2021/04/28 09:23:40;;;;;;;1278.40;999.90;;;24.80;38.00;;;;;;4960919;29;20429;-73
2021/04/28 09:26:33;;;;;;;1287.93;999.90;;;24.80;36.40;;;;;;4961406;29;20576;-73
2021/04/28 09:29:35;;;;;;;1276.53;999.90;;;23.50;36.60;;;;;;4933122;29;20461;-72
2021/04/28 09:32:09;;;;;;;1243.72;999.90;;;23.50;36.40;;;;;;4959996;29;20441;-74
2021/04/28 09:34:39;;;;;;;1255.80;999.90;;;24.00;34.30;;;;;;4944546;29;20426;-73
2021/04/28 09:37:10;;;;;;;1262.13;999.90;;;23.70;35.20;;;;;;4961480;29;20425;-73
2021/04/28 09:39:40;;;;;;;1260.70;999.90;;;23.10;35.30;;;;;;4945380;29;20441;-73
2021/04/28 09:42:08;;;;;;;1280.50;999.90;;;23.70;36.60;;;;;;4943465;28;20897;-74
2021/04/28 09:44:38;;;;;;;1285.55;999.90;;;23.80;35.40;;;;;;4927840;29;20770;-73
2021/04/28 09:47:09;;;;;;;1261.63;999.90;;;22.40;34.40;;;;;;4960246;28;20414;-74
2021/04/28 09:49:53;;;;;;;1270.28;999.90;;;22.00;34.30;;;;;;4977705;28;20519;-73
2021/04/28 09:52:37;;;;;;;1230.40;999.90;;;21.90;33.80;;;;;;4962708;29;20426;-75
2021/04/28 09:55:08;;;;;;;1272.07;999.90;;;22.90;34.90;;;;;;4959610;29;20509;-74
2021/04/28 09:57:38;;;;;;;1262.73;999.90;;;23.60;34.40;;;;;;4961771;29;20432;-75
2021/04/28 10:00:23;;;;;;;1246.80;999.90;;;22.40;35.40;;;;;;4962141;29;20492;-73
2021/04/28 10:02:54;;;;;;;1279.05;999.90;;;22.90;35.80;;;;;;4961217;28;20492;-73
2021/04/28 10:05:27;;;;;;;1298.10;999.90;;;24.10;33.20;;;;;;4962523;28;20471;-74
2021/04/28 10:08:08;;;;;;;1261.22;999.90;;;22.90;32.50;;;;;;4963889;28;20424;-75
2021/04/28 10:10:36;;;;;;;1277.22;999.90;;;22.10;34.40;;;;;;4963425;28;20420;-74
2021/04/28 10:13:04;;;;;;;1286.45;999.90;;;23.50;34.80;;;;;;4962100;28;20959;-73
2021/04/28 10:15:33;;;;;;;1288.37;999.90;;;23.10;33.80;;;;;;4958717;28;20413;-74
2021/04/28 10:18:04;;;;;;;1273.85;999.90;;;23.40;34.40;;;;;;4974745;28;20433;-73
2021/04/28 10:20:34;;;;;;;1291.07;999.90;;;23.40;34.10;;;;;;4958052;29;20418;-73
2021/04/28 10:23:04;;;;;;;1329.65;999.90;;;24.70;34.40;;;;;;4958577;29;20414;-72
2021/04/28 10:25:32;;;;;;;1335.30;999.90;;;25.90;31.00;;;;;;4957515;29;20418;-75
2021/04/28 10:28:01;;;;;;;1343.10;999.90;;;26.50;31.80;;;;;;4971992;28;20433;-74
2021/04/28 10:30:29;;;;;;;1338.72;999.90;;;27.10;30.80;;;;;;4970476;28;20874;-73
2021/04/28 10:32:59;;;;;;;1339.03;999.90;;;27.00;30.60;;;;;;4971278;28;20410;-75
2021/04/28 10:35:29;;;;;;;1338.60;999.90;;;25.10;31.10;;;;;;4957148;29;20410;-75
2021/04/28 10:37:58;;;;;;;1322.40;999.90;;;24.00;33.70;;;;;;4941015;29;20887;-73
2021/04/28 10:40:29;;;;;;;1293.45;999.90;;;23.10;34.30;;;;;;4973664;28;20921;-75
2021/04/28 10:43:08;;;;;;;1272.55;999.90;;;22.60;34.90;;;;;;4944566;29;20426;-74
2021/04/28 10:45:38;;;;;;;1266.15;999.90;;;23.20;35.50;;;;;;4943156;28;20410;-73
2021/04/28 10:48:40;;;;;;;1283.15;999.90;;;24.80;35.10;;;;;;4941619;29;20958;-76
2021/04/28 10:51:09;;;;;;;1278.38;999.90;;;23.20;34.00;;;;;;4942747;29;20434;-74
2021/04/28 10:53:37;;;;;;;1308.70;999.90;;;23.30;36.60;;;;;;4957519;29;20910;-74
2021/04/28 10:56:12;;;;;;;1300.47;999.90;;;24.50;34.90;;;;;;4942384;29;20424;-74
2021/04/28 10:58:47;;;;;;;1298.93;999.90;;;22.00;36.00;;;;;;4974019;28;20430;-74
2021/04/28 11:01:37;;;;;;;1291.38;999.90;;;23.70;35.70;;;;;;4960189;28;20481;-77
2021/04/28 11:04:14;;;;;;;1301.15;999.90;;;23.20;35.60;;;;;;4948807;29;20436;-76
2021/04/28 11:06:44;;;;;;;1296.07;999.90;;;24.00;35.80;;;;;;4985290;28;20437;-75
2021/04/28 11:09:18;;;;;;;1310.17;999.90;;;23.80;35.70;;;;;;4949428;29;20453;-78
2021/04/28 11:11:56;;;;;;;1313.97;999.90;;;25.40;35.40;;;;;;4963304;28;20482;-76
2021/04/28 11:14:33;;;;;;;1317.73;999.90;;;26.20;33.60;;;;;;4965877;29;20445;-77
2021/04/28 11:17:31;;;;;;;1318.97;999.90;;;24.20;34.60;;;;;;4948550;29;20410;-77
2021/04/28 11:20:26;;;;;;;1304.50;999.90;;;22.80;36.70;;;;;;4982944;28;20421;-77
2021/04/28 11:23:21;;;;;;;1299.70;999.90;;;22.80;37.30;;;;;;4935164;29;20498;-77
2021/04/28 11:26:09;;;;;;;1302.33;999.90;;;24.30;36.20;;;;;;4949800;29;20425;-77
2021/04/28 11:28:42;;;;;;;1298.65;999.90;;;23.40;35.70;;;;;;4934642;29;20930;-77
2021/04/28 11:31:23;;;;;;;1309.73;999.90;;;24.00;36.20;;;;;;4974726;28;20820;-75
2021/04/28 11:33:51;;;;;;;1300.20;999.90;;;24.30;35.40;;;;;;4963239;29;20402;-77
2021/04/28 11:36:19;;;;;;;1293.85;999.90;;;22.90;35.90;;;;;;4975470;28;20406;-76
2021/04/28 11:38:51;;;;;;;1287.57;999.90;;;22.60;37.30;;;;;;4925894;29;20440;-73
2021/04/28 11:41:23;;;;;;;1285.47;999.90;;;22.70;37.80;;;;;;4971956;28;20437;-70
2021/04/28 11:43:53;;;;;;;1290.53;999.90;;;22.70;37.60;;;;;;4957257;29;20445;-70
2021/04/28 11:46:22;;;;;;;1277.72;999.90;;;22.10;38.00;;;;;;4939308;29;20440;-70
2021/04/28 11:48:52;;;;;;;1245.32;999.90;;;21.90;38.60;;;;;;4973472;28;20580;-72
2021/04/28 11:51:28;;;;;;;1245.90;999.90;;;21.40;38.70;;;;;;4958072;28;20436;-71
2021/04/28 11:53:58;;;;;;;1237.80;999.90;;;21.80;39.20;;;;;;4957037;29;20410;-69
2021/04/28 11:56:27;;;;;;;1244.60;999.90;;;21.80;39.00;;;;;;4957712;29;20426;-69
2021/04/28 11:58:56;;;;;;;1261.90;999.90;;;22.90;38.90;;;;;;4956896;29;20767;-69
2021/04/28 12:01:26;;;;;;;1245.67;999.90;;;22.80;37.80;;;;;;4956813;28;20422;-70
2021/04/28 12:03:59;;;;;;;1256.90;999.90;;;22.20;38.40;;;;;;4957912;29;20432;-70
2021/04/28 12:06:42;;;;;;;1248.07;999.90;;;22.20;39.50;;;;;;4957112;29;20425;-69
2021/04/28 12:09:13;;;;;;;1238.03;999.90;;;21.80;39.10;;;;;;4956347;29;20774;-70
2021/04/28 12:11:45;;;;;;;1242.97;999.90;;;21.20;39.50;;;;;;4958410;29;20420;-71
2021/04/28 12:14:13;;;;;;;1262.93;999.90;;;21.90;40.60;;;;;;4955564;29;20484;-69
2021/04/28 12:16:56;;;;;;;1266.03;999.90;;;23.20;38.90;;;;;;4955833;29;20794;-70
2021/04/28 12:19:26;;;;;;;1257.30;999.90;;;23.20;37.50;;;;;;4940017;29;20444;-70
2021/04/28 12:21:57;;;;;;;1266.88;999.90;;;22.40;39.20;;;;;;4956399;29;20571;-69
2021/04/28 12:24:26;;;;;;;1260.40;999.90;;;23.10;38.20;;;;;;4958302;29;20429;-69
2021/04/28 12:27:07;;;;;;;1240.30;999.90;;;23.00;37.00;;;;;;4958062;29;20448;-75
2021/04/28 12:29:38;;;;;;;1269.78;999.90;;;22.90;37.30;;;;;;4940881;29;20430;-68
2021/04/28 12:32:08;;;;;;;1275.97;999.90;;;23.40;37.00;;;;;;4986562;28;20760;-75
2021/04/28 12:34:37;;;;;;;1267.80;999.90;;;23.50;35.90;;;;;;4999150;28;20902;-74
2021/04/28 12:37:13;;;;;;;1263.97;999.90;;;23.70;35.70;;;;;;4981084;28;20839;-72
2021/04/28 12:39:52;;;;;;;1261.22;999.90;;;24.00;35.60;;;;;;4998025;28;20496;-72
2021/04/28 12:42:23;;;;;;;1278.00;999.90;;;22.80;36.20;;;;;;4996466;28;20771;-72
2021/04/28 12:44:51;;;;;;;1276.15;999.90;;;23.20;36.20;;;;;;5012292;28;20465;-73
2021/04/28 12:47:31;;;;;;;1272.35;999.90;;;22.70;36.40;;;;;;5011007;28;20429;-73
2021/04/28 12:50:09;;;;;;;1290.83;999.90;;;23.50;37.00;;;;;;4978896;28;20421;-72
2021/04/28 12:52:40;;;;;;;1271.13;999.90;;;23.20;36.50;;;;;;4996089;28;20411;-70
2021/04/28 12:55:32;;;;;;;1280.32;999.90;;;23.10;36.40;;;;;;4978270;28;20511;-72
2021/04/28 12:58:01;;;;;;;1287.95;999.90;;;23.40;36.40;;;;;;4996239;28;20786;-72
2021/04/28 13:00:33;;;;;;;1281.32;999.90;;;23.10;36.70;;;;;;4994460;28;20453;-74
2021/04/28 13:03:25;;;;;;;1284.20;999.90;;;23.10;36.30;;;;;;4995696;28;20414;-74